Time;durP1;ratioP1;P1;durP2;ratioP2;P2;SDS_P1;SDS_P2;PMS_P1;PMS_P2;Temp;Humidity;BMP_temperature;BMP_pressure;BME280_temperature;BME280_humidity;BME280_pressure;Samples;Min_cycle;Max_cycle;Signal;HPM_P1;HPM_P2
2021/08/18 00:00:44;;;;;;;2.60;2.50;;;21.20;82.40;;;;;;5092335;28;20186;-77
2021/08/18 00:03:10;;;;;;;3.20;2.45;;;21.20;83.20;;;;;;5097438;28;20190;-77
2021/08/18 00:05:37;;;;;;;4.50;2.20;;;21.10;82.60;;;;;;5100824;28;20187;-77
2021/08/18 00:08:05;;;;;;;2.88;2.65;;;21.00;83.60;;;;;;5093969;28;20174;-77
2021/08/18 00:10:31;;;;;;;2.40;2.30;;;20.90;84.20;;;;;;5091337;28;21770;-77
2021/08/18 00:12:56;;;;;;;2.45;2.35;;;20.90;83.50;;;;;;5096466;28;20181;-77
2021/08/18 00:15:23;;;;;;;2.53;2.42;;;20.80;83.50;;;;;;5098956;28;20181;-77
2021/08/18 00:17:49;;;;;;;1.92;1.83;;;20.70;83.40;;;;;;5093552;28;21026;-77
2021/08/18 00:20:15;;;;;;;2.60;2.35;;;20.60;84.40;;;;;;5092700;28;20213;-76
2021/08/18 00:22:41;;;;;;;2.95;1.98;;;20.50;84.80;;;;;;5097823;28;20177;-76
2021/08/18 00:25:08;;;;;;;3.90;1.95;;;20.40;83.70;;;;;;5094621;28;20325;-76
2021/08/18 00:27:35;;;;;;;1.65;1.52;;;20.30;84.80;;;;;;5094783;28;20197;-76
2021/08/18 00:30:01;;;;;;;1.95;1.83;;;20.30;84.40;;;;;;5095329;28;20186;-76
2021/08/18 00:32:26;;;;;;;2.80;2.03;;;20.30;83.80;;;;;;5094156;28;20181;-76
2021/08/18 00:34:52;;;;;;;2.38;2.28;;;20.30;85.30;;;;;;5096137;28;20181;-76
2021/08/18 00:37:18;;;;;;;3.30;1.88;;;20.30;85.60;;;;;;5094522;28;20177;-76
2021/08/18 00:39:43;;;;;;;4.55;2.08;;;20.30;85.40;;;;;;5094895;28;20206;-76
2021/08/18 00:42:09;;;;;;;5.60;2.25;;;20.20;85.50;;;;;;5093057;28;20182;-76
2021/08/18 00:44:36;;;;;;;2.42;2.33;;;20.20;85.20;;;;;;5095609;28;20645;-76
2021/08/18 00:47:05;;;;;;;2.00;1.90;;;20.30;85.90;;;;;;5097823;28;20269;-76
2021/08/18 00:49:31;;;;;;;3.15;2.30;;;20.30;85.50;;;;;;5092407;28;20952;-76
2021/08/18 00:51:58;;;;;;;2.97;2.78;;;20.20;85.00;;;;;;5095427;28;20209;-76
2021/08/18 00:54:24;;;;;;;2.85;2.75;;;20.20;85.30;;;;;;5093469;28;20186;-76
2021/08/18 00:56:52;;;;;;;6.88;3.00;;;20.20;86.20;;;;;;5097387;28;20191;-76
2021/08/18 00:59:18;;;;;;;4.05;2.53;;;20.20;86.20;;;;;;5096609;28;20201;-76
2021/08/18 01:01:45;;;;;;;3.33;2.70;;;20.20;85.70;;;;;;5097268;28;20187;-76
2021/08/18 01:04:11;;;;;;;3.53;3.20;;;20.20;85.50;;;;;;5092544;28;20653;-75
2021/08/18 01:06:40;;;;;;;3.30;2.88;;;20.20;85.90;;;;;;5093640;28;20269;-75
2021/08/18 01:09:11;;;;;;;4.60;3.22;;;20.20;86.40;;;;;;5095401;28;20182;-76
2021/08/18 01:11:44;;;;;;;2.70;2.60;;;20.20;86.00;;;;;;5090984;28;20265;-77
2021/08/18 01:14:11;;;;;;;3.00;2.85;;;20.20;87.10;;;;;;5091662;28;22199;-76
2021/08/18 01:16:39;;;;;;;2.72;2.63;;;20.20;85.50;;;;;;5094061;28;20247;-75
2021/08/18 01:19:05;;;;;;;2.90;2.70;;;20.20;86.70;;;;;;5089915;28;20324;-75
2021/08/18 01:21:33;;;;;;;3.85;2.70;;;20.10;85.70;;;;;;5098736;28;20565;-75
2021/08/18 01:23:58;;;;;;;2.50;2.40;;;20.10;85.60;;;;;;5092344;28;20699;-77
2021/08/18 01:26:24;;;;;;;2.97;2.15;;;20.20;84.70;;;;;;5091656;28;20261;-78
2021/08/18 01:28:50;;;;;;;2.60;2.40;;;20.20;85.80;;;;;;5091211;28;20579;-77
2021/08/18 01:31:18;;;;;;;2.60;2.40;;;20.10;84.90;;;;;;5091098;28;20174;-76
2021/08/18 01:33:44;;;;;;;2.97;2.38;;;20.10;85.10;;;;;;5087381;28;20182;-76
2021/08/18 01:36:10;;;;;;;3.70;2.45;;;20.10;84.90;;;;;;5098054;28;20189;-78
2021/08/18 01:38:35;;;;;;;2.10;2.03;;;20.10;85.00;;;;;;5091681;28;20181;-75
2021/08/18 01:41:01;;;;;;;2.20;2.10;;;20.10;84.40;;;;;;5084665;28;20200;-78
2021/08/18 01:43:27;;;;;;;3.40;1.85;;;20.00;84.60;;;;;;5089487;28;20648;-75
2021/08/18 01:45:53;;;;;;;2.28;2.17;;;20.00;84.30;;;;;;5093361;28;20182;-75
2021/08/18 01:48:32;;;;;;;2.47;1.85;;;20.00;84.30;;;;;;5091770;28;20242;-76
2021/08/18 01:51:03;;;;;;;2.53;1.85;;;19.90;84.70;;;;;;5089574;28;20254;-76
2021/08/18 01:53:40;;;;;;;1.90;1.80;;;19.90;84.20;;;;;;5091715;28;20201;-78
2021/08/18 01:56:07;;;;;;;2.03;1.92;;;19.80;85.20;;;;;;5087466;28;20291;-75
2021/08/18 01:58:34;;;;;;;3.40;2.03;;;19.80;84.90;;;;;;5091252;28;20272;-77
2021/08/18 02:01:01;;;;;;;4.25;2.17;;;19.80;85.20;;;;;;5088189;28;20335;-77
2021/08/18 02:03:27;;;;;;;3.15;1.98;;;19.70;84.80;;;;;;5095163;28;20177;-76
2021/08/18 02:05:52;;;;;;;2.05;2.00;;;19.70;84.50;;;;;;5091818;28;20192;-77
2021/08/18 02:08:18;;;;;;;5.05;2.15;;;19.70;85.40;;;;;;5087623;28;20187;-77
2021/08/18 02:10:44;;;;;;;1.80;1.70;;;19.60;85.00;;;;;;5090495;28;20224;-76
2021/08/18 02:13:11;;;;;;;3.63;1.73;;;19.60;84.40;;;;;;5091439;28;20196;-77
2021/08/18 02:15:38;;;;;;;4.13;2.00;;;19.60;85.40;;;;;;5092943;28;20215;-76
2021/08/18 02:18:05;;;;;;;2.88;1.60;;;19.60;84.80;;;;;;5089684;28;20185;-76
2021/08/18 02:20:33;;;;;;;2.30;2.20;;;19.50;85.80;;;;;;5090181;28;20181;-76
2021/08/18 02:23:00;;;;;;;2.10;1.90;;;19.50;85.30;;;;;;5089445;28;20191;-75
2021/08/18 02:25:26;;;;;;;3.97;2.20;;;19.50;85.10;;;;;;5087078;28;20225;-76
2021/08/18 02:27:52;;;;;;;1.80;1.70;;;19.40;84.30;;;;;;5087165;28;20636;-75
2021/08/18 02:30:20;;;;;;;3.28;2.25;;;19.40;85.30;;;;;;5089358;28;20236;-75
2021/08/18 02:32:47;;;;;;;1.70;1.60;;;19.40;85.10;;;;;;5089798;28;20265;-76
2021/08/18 02:35:13;;;;;;;7.25;2.45;;;19.40;85.50;;;;;;5096328;28;20264;-76
2021/08/18 02:37:40;;;;;;;5.05;1.92;;;19.30;85.00;;;;;;5090287;28;20181;-75
2021/08/18 02:40:08;;;;;;;2.33;2.15;;;19.30;86.00;;;;;;5090520;28;20185;-75
2021/08/18 02:42:34;;;;;;;2.42;2.20;;;19.30;85.40;;;;;;5094140;28;20179;-75
2021/08/18 02:44:59;;;;;;;1.90;1.90;;;19.20;85.60;;;;;;5088146;28;20643;-75
2021/08/18 02:47:25;;;;;;;5.30;1.85;;;19.20;86.20;;;;;;5091303;28;20178;-75
2021/08/18 02:49:52;;;;;;;1.83;1.73;;;19.10;85.60;;;;;;5085240;28;20181;-75
2021/08/18 02:52:18;;;;;;;2.53;1.90;;;19.10;85.60;;;;;;5092678;28;20181;-75
2021/08/18 02:54:44;;;;;;;1.45;1.38;;;19.10;85.50;;;;;;5090378;28;20235;-75
2021/08/18 02:57:10;;;;;;;2.28;1.95;;;19.00;85.00;;;;;;5092623;28;20607;-75
2021/08/18 02:59:36;;;;;;;1.92;1.67;;;19.00;85.60;;;;;;5092468;28;20178;-75
2021/08/18 03:02:01;;;;;;;3.10;1.85;;;19.00;85.70;;;;;;5097620;28;20204;-76
2021/08/18 03:04:27;;;;;;;3.10;2.08;;;18.90;85.50;;;;;;5097317;28;20209;-76
2021/08/18 03:06:54;;;;;;;1.88;1.70;;;18.90;86.10;;;;;;5100650;28;20177;-76
2021/08/18 03:09:21;;;;;;;2.28;1.95;;;18.90;84.70;;;;;;5093180;28;20204;-76
2021/08/18 03:11:47;;;;;;;2.30;1.80;;;18.80;85.70;;;;;;5099877;28;20556;-76
2021/08/18 03:14:12;;;;;;;3.38;1.88;;;18.80;85.80;;;;;;5096903;28;20217;-77
2021/08/18 03:16:38;;;;;;;2.15;2.03;;;18.80;85.70;;;;;;5094219;28;20212;-77
2021/08/18 03:19:04;;;;;;;2.90;1.88;;;18.80;85.90;;;;;;5099987;28;20635;-76
2021/08/18 03:21:29;;;;;;;1.95;1.52;;;18.80;85.30;;;;;;5100006;28;20189;-77
2021/08/18 03:23:55;;;;;;;1.52;1.52;;;18.70;85.80;;;;;;5090912;28;20727;-77
2021/08/18 03:26:21;;;;;;;2.15;1.55;;;18.70;84.90;;;;;;5097920;28;20185;-77
2021/08/18 03:28:46;;;;;;;3.92;2.25;;;18.70;85.70;;;;;;5092865;28;20178;-77
2021/08/18 03:31:12;;;;;;;2.30;1.95;;;18.60;85.30;;;;;;5090890;28;20212;-77
2021/08/18 03:33:38;;;;;;;4.82;1.80;;;18.60;85.30;;;;;;5093567;28;20729;-77
2021/08/18 03:36:04;;;;;;;1.92;1.52;;;18.60;85.60;;;;;;5092831;28;20723;-78
2021/08/18 03:38:30;;;;;;;2.08;1.88;;;18.50;85.50;;;;;;5094530;28;20204;-75
2021/08/18 03:40:56;;;;;;;1.58;1.35;;;18.50;85.50;;;;;;5094213;28;20186;-75
2021/08/18 03:43:22;;;;;;;2.00;1.30;;;18.40;85.90;;;;;;5090562;28;20185;-76
2021/08/18 03:45:49;;;;;;;1.73;1.70;;;18.40;85.30;;;;;;5092422;28;20182;-77
2021/08/18 03:48:15;;;;;;;2.03;1.90;;;18.40;86.30;;;;;;5091939;28;20807;-76
2021/08/18 03:50:41;;;;;;;1.88;1.63;;;18.30;86.40;;;;;;5095634;28;20218;-78
2021/08/18 03:53:07;;;;;;;1.75;1.65;;;18.30;85.90;;;;;;5093615;28;20788;-78
2021/08/18 03:55:32;;;;;;;2.55;1.58;;;18.20;86.00;;;;;;5086310;28;20224;-79
2021/08/18 03:57:58;;;;;;;2.17;1.58;;;18.20;86.00;;;;;;5091224;28;20177;-79
2021/08/18 04:00:24;;;;;;;1.60;1.52;;;18.20;85.70;;;;;;5097410;28;20174;-78
2021/08/18 04:02:50;;;;;;;2.05;1.70;;;18.20;86.20;;;;;;5097392;28;20185;-78
2021/08/18 04:05:15;;;;;;;2.33;1.52;;;18.20;85.60;;;;;;5096229;28;20694;-78
2021/08/18 04:07:41;;;;;;;1.35;1.27;;;18.20;85.80;;;;;;5090670;28;20205;-78
2021/08/18 04:10:08;;;;;;;5.60;1.63;;;18.20;85.70;;;;;;5096880;28;20193;-78
2021/08/18 04:12:58;;;;;;;1.73;1.63;;;18.20;85.30;;;;;;5095539;28;20623;-78
2021/08/18 04:15:35;;;;;;;6.22;1.58;;;18.10;85.60;;;;;;5091115;28;20197;-78
2021/08/18 04:18:00;;;;;;;1.35;1.25;;;18.10;85.10;;;;;;5092678;28;20184;-78
2021/08/18 04:20:26;;;;;;;1.35;1.35;;;18.10;84.70;;;;;;5095645;28;20178;-78
2021/08/18 04:22:52;;;;;;;2.03;1.58;;;18.10;84.70;;;;;;5092614;28;20197;-78
2021/08/18 04:25:20;;;;;;;2.42;1.50;;;18.10;84.60;;;;;;5096352;28;20213;-78
2021/08/18 04:27:46;;;;;;;1.52;1.42;;;18.10;84.20;;;;;;5093937;28;20302;-78
2021/08/18 04:30:14;;;;;;;4.43;1.30;;;18.10;84.00;;;;;;5092508;28;20182;-78
2021/08/18 04:32:40;;;;;;;1.17;1.17;;;18.10;84.50;;;;;;5091888;28;20179;-78
2021/08/18 04:35:07;;;;;;;2.45;1.58;;;18.10;84.70;;;;;;5053984;27;20260;-78
2021/08/18 04:37:35;;;;;;;1.40;1.40;;;18.10;84.20;;;;;;5056212;28;20187;-79
2021/08/18 04:40:02;;;;;;;3.05;1.40;;;18.00;83.70;;;;;;5053915;28;20242;-78
2021/08/18 04:42:37;;;;;;;2.72;1.38;;;18.00;84.40;;;;;;5059872;28;20233;-78
2021/08/18 04:45:08;;;;;;;6.85;1.92;;;18.00;84.90;;;;;;5055733;28;20205;-78
2021/08/18 04:47:35;;;;;;;1.85;1.40;;;18.00;84.50;;;;;;5064454;28;20574;-77
2021/08/18 04:50:00;;;;;;;1.27;1.27;;;18.00;84.60;;;;;;5057585;28;20192;-79
2021/08/18 04:52:26;;;;;;;3.35;1.55;;;18.00;83.80;;;;;;5052643;28;20180;-79
2021/08/18 04:54:53;;;;;;;1.60;1.52;;;18.00;84.50;;;;;;5060494;28;20252;-78
2021/08/18 04:57:19;;;;;;;1.67;1.20;;;18.10;84.00;;;;;;5051963;28;20176;-78
2021/08/18 04:59:44;;;;;;;1.40;1.40;;;18.10;84.00;;;;;;5055022;28;20183;-79
2021/08/18 05:02:10;;;;;;;1.35;1.20;;;18.20;83.70;;;;;;5056160;28;20936;-79
2021/08/18 05:04:36;;;;;;;1.83;1.40;;;18.10;84.20;;;;;;5055382;28;20203;-79
2021/08/18 05:07:02;;;;;;;2.55;1.60;;;18.10;84.20;;;;;;5060006;28;20180;-78
2021/08/18 05:09:27;;;;;;;1.55;1.45;;;18.20;84.00;;;;;;5063182;28;20180;-78
2021/08/18 05:11:54;;;;;;;2.30;1.13;;;18.20;82.90;;;;;;5057796;28;20181;-79
2021/08/18 05:14:21;;;;;;;1.42;1.25;;;18.20;83.00;;;;;;5053679;28;20191;-78
2021/08/18 05:16:47;;;;;;;1.73;0.88;;;18.20;82.10;;;;;;5044004;28;21165;-78
2021/08/18 05:19:13;;;;;;;0.93;0.93;;;18.20;82.20;;;;;;5052463;28;20262;-78
2021/08/18 05:21:39;;;;;;;1.48;1.20;;;18.20;82.20;;;;;;5062300;28;20699;-78
2021/08/18 05:24:05;;;;;;;1.02;0.98;;;18.20;82.20;;;;;;5058953;28;20216;-78
2021/08/18 05:26:31;;;;;;;2.00;1.05;;;18.30;82.10;;;;;;5058054;28;20703;-78
2021/08/18 05:28:56;;;;;;;1.02;1.02;;;18.30;81.80;;;;;;5051481;28;20191;-78
2021/08/18 05:31:22;;;;;;;1.20;1.13;;;18.30;81.70;;;;;;5046432;28;20225;-76
2021/08/18 05:33:48;;;;;;;1.25;1.25;;;18.30;81.70;;;;;;5044725;28;20240;-77
2021/08/18 05:36:14;;;;;;;0.82;0.82;;;18.30;81.50;;;;;;5050432;28;20180;-75
2021/08/18 05:38:39;;;;;;;0.80;0.80;;;18.30;81.60;;;;;;5055426;28;20964;-76
2021/08/18 05:41:05;;;;;;;2.95;1.40;;;18.30;80.80;;;;;;5053418;28;20595;-78
2021/08/18 05:43:31;;;;;;;3.95;1.10;;;18.30;80.60;;;;;;5054886;28;20186;-78
2021/08/18 05:45:56;;;;;;;0.85;0.85;;;18.30;80.50;;;;;;5054012;28;20187;-79
2021/08/18 05:48:22;;;;;;;0.82;0.80;;;18.40;80.50;;;;;;5050722;28;20186;-78
2021/08/18 05:50:48;;;;;;;0.80;0.80;;;18.40;80.50;;;;;;5053260;28;20201;-78
2021/08/18 05:53:18;;;;;;;0.88;0.88;;;18.40;79.80;;;;;;5055190;28;20210;-78
2021/08/18 05:55:45;;;;;;;1.65;1.00;;;18.40;79.80;;;;;;5062009;28;20261;-78
2021/08/18 05:58:11;;;;;;;1.67;0.90;;;18.50;79.30;;;;;;5054427;28;20188;-78
2021/08/18 06:00:37;;;;;;;6.22;0.73;;;18.50;79.20;;;;;;5056906;28;20179;-78
2021/08/18 06:03:03;;;;;;;1.17;1.08;;;18.50;79.00;;;;;;5049303;28;20213;-78
2021/08/18 06:05:30;;;;;;;1.58;0.82;;;18.60;78.70;;;;;;5056061;28;20767;-78
2021/08/18 06:07:56;;;;;;;1.42;0.82;;;18.60;78.50;;;;;;5048824;28;20179;-78
2021/08/18 06:10:21;;;;;;;6.82;0.95;;;18.60;77.90;;;;;;5051436;28;20246;-78
2021/08/18 06:12:47;;;;;;;0.80;0.80;;;18.70;77.80;;;;;;5053237;28;20240;-78
2021/08/18 06:15:13;;;;;;;0.65;0.65;;;18.80;77.90;;;;;;5052461;28;20175;-78
2021/08/18 06:17:38;;;;;;;0.85;0.57;;;18.90;77.60;;;;;;5051082;28;20906;-78
2021/08/18 06:20:05;;;;;;;0.80;0.80;;;19.00;77.60;;;;;;5052049;28;20213;-78
2021/08/18 06:22:31;;;;;;;0.90;0.90;;;19.10;77.10;;;;;;5054685;28;20187;-78
2021/08/18 06:25:01;;;;;;;2.50;0.80;;;19.20;77.30;;;;;;5051761;28;20219;-78
2021/08/18 06:27:27;;;;;;;0.82;0.80;;;19.30;76.90;;;;;;5054919;28;20273;-78
2021/08/18 06:29:53;;;;;;;0.70;0.70;;;19.30;76.30;;;;;;5065296;28;20263;-77
2021/08/18 06:32:19;;;;;;;0.85;0.80;;;19.40;76.40;;;;;;5058530;28;20182;-76
2021/08/18 06:34:45;;;;;;;1.35;1.02;;;19.40;75.90;;;;;;5057342;28;20562;-77
2021/08/18 06:37:10;;;;;;;0.60;0.60;;;19.50;75.70;;;;;;5054663;28;20298;-76
2021/08/18 06:39:37;;;;;;;2.15;0.80;;;19.60;75.80;;;;;;5054783;28;20283;-77
2021/08/18 06:42:04;;;;;;;4.47;1.00;;;19.60;75.50;;;;;;5058304;28;20202;-77
2021/08/18 06:44:29;;;;;;;2.10;1.10;;;19.70;75.30;;;;;;5055365;28;20203;-77
2021/08/18 06:46:55;;;;;;;1.15;1.15;;;19.70;74.80;;;;;;5055861;28;20720;-77
2021/08/18 06:49:21;;;;;;;2.28;0.82;;;19.80;75.20;;;;;;5058745;28;20187;-78
2021/08/18 06:51:46;;;;;;;0.73;0.73;;;19.80;75.00;;;;;;5061268;28;20261;-77
2021/08/18 06:54:12;;;;;;;1.55;1.13;;;19.80;74.70;;;;;;5058025;28;20659;-77
2021/08/18 06:56:38;;;;;;;3.95;0.98;;;19.80;74.40;;;;;;5057728;28;20178;-78
2021/08/18 06:59:04;;;;;;;1.23;0.80;;;19.80;74.60;;;;;;5058609;28;20190;-77
2021/08/18 07:01:29;;;;;;;2.35;0.70;;;19.90;74.50;;;;;;5060123;28;20168;-77
2021/08/18 07:03:55;;;;;;;1.17;0.85;;;19.90;75.00;;;;;;5055905;28;20217;-77
2021/08/18 07:06:21;;;;;;;1.05;0.98;;;19.90;74.90;;;;;;5055052;28;20641;-78
2021/08/18 07:08:46;;;;;;;2.60;0.88;;;19.90;75.00;;;;;;5057285;28;20233;-77
2021/08/18 07:11:13;;;;;;;0.95;0.95;;;20.00;74.80;;;;;;5057796;28;20183;-77
2021/08/18 07:13:39;;;;;;;1.40;1.30;;;20.00;74.90;;;;;;5056703;28;20183;-78
2021/08/18 07:16:05;;;;;;;1.02;1.02;;;20.20;74.50;;;;;;5055676;28;20641;-77
2021/08/18 07:18:31;;;;;;;1.20;1.10;;;20.20;74.40;;;;;;5059610;28;20172;-77
2021/08/18 07:20:57;;;;;;;1.15;1.08;;;20.30;74.00;;;;;;5058318;28;20206;-77
2021/08/18 07:23:24;;;;;;;1.95;1.10;;;20.40;74.10;;;;;;5059300;28;20175;-77
2021/08/18 07:25:49;;;;;;;6.22;1.02;;;20.40;73.90;;;;;;5057784;28;20639;-77
2021/08/18 07:28:15;;;;;;;2.22;1.35;;;20.50;73.90;;;;;;5058351;28;20184;-77
2021/08/18 07:30:41;;;;;;;1.48;1.30;;;20.50;74.00;;;;;;5057402;28;20194;-77
2021/08/18 07:33:07;;;;;;;2.35;1.20;;;20.60;73.50;;;;;;5051335;28;20673;-78
2021/08/18 07:35:33;;;;;;;0.80;0.80;;;20.70;73.50;;;;;;5055473;28;20187;-78
2021/08/18 07:37:59;;;;;;;2.58;1.55;;;20.80;73.80;;;;;;5055107;28;20607;-77
2021/08/18 07:40:25;;;;;;;0.90;0.90;;;20.80;73.30;;;;;;5051363;28;20313;-78
2021/08/18 07:42:52;;;;;;;1.65;1.23;;;20.90;72.80;;;;;;5050059;28;20242;-77
2021/08/18 07:45:18;;;;;;;1.10;1.10;;;21.10;72.40;;;;;;5059161;28;20688;-78
2021/08/18 07:47:45;;;;;;;1.20;1.20;;;21.20;72.80;;;;;;5049755;28;20207;-78
2021/08/18 07:50:12;;;;;;;1.23;1.17;;;21.20;72.30;;;;;;5055395;28;20176;-77
2021/08/18 07:52:38;;;;;;;1.48;1.40;;;21.30;72.40;;;;;;5059113;28;20183;-77
2021/08/18 07:55:07;;;;;;;1.38;1.38;;;21.30;72.50;;;;;;5060976;28;20222;-76
2021/08/18 07:57:34;;;;;;;1.40;1.10;;;21.40;72.20;;;;;;5052430;28;20205;-77
2021/08/18 08:00:05;;;;;;;3.63;1.63;;;21.40;72.00;;;;;;5060666;28;20179;-77
2021/08/18 08:02:31;;;;;;;1.20;1.20;;;21.40;71.90;;;;;;5057011;28;20183;-77
2021/08/18 08:04:58;;;;;;;1.42;1.23;;;21.40;71.70;;;;;;5059358;28;20287;-77
2021/08/18 08:07:24;;;;;;;1.67;1.67;;;21.60;72.30;;;;;;5056569;28;20184;-77
2021/08/18 08:09:50;;;;;;;2.05;1.77;;;21.60;72.20;;;;;;5059728;28;20297;-77
2021/08/18 08:12:15;;;;;;;1.83;1.73;;;21.70;72.10;;;;;;5059520;28;20186;-77
2021/08/18 08:14:41;;;;;;;2.03;1.90;;;21.80;71.30;;;;;;5057246;28;20197;-76
2021/08/18 08:17:07;;;;;;;3.42;1.77;;;21.90;71.60;;;;;;5061809;28;20182;-77
2021/08/18 08:19:33;;;;;;;1.98;1.88;;;22.00;71.20;;;;;;5056394;28;20171;-77
2021/08/18 08:21:59;;;;;;;2.75;2.00;;;22.10;71.30;;;;;;5060135;28;20237;-77
2021/08/18 08:24:25;;;;;;;2.20;2.00;;;22.30;71.20;;;;;;5057176;28;20722;-77
2021/08/18 08:26:51;;;;;;;1.98;1.88;;;22.40;70.30;;;;;;5055024;28;20194;-77
2021/08/18 08:29:16;;;;;;;2.72;2.53;;;22.50;70.50;;;;;;5051689;28;20265;-77
2021/08/18 08:31:43;;;;;;;2.72;2.53;;;22.70;70.40;;;;;;5055629;28;20235;-76
2021/08/18 08:34:10;;;;;;;2.17;2.08;;;22.80;69.80;;;;;;5052039;28;20280;-76
2021/08/18 08:36:36;;;;;;;3.90;2.60;;;23.00;70.00;;;;;;5049078;28;20187;-76
2021/08/18 08:39:02;;;;;;;2.60;2.47;;;23.10;69.70;;;;;;5053342;28;20195;-78
2021/08/18 08:41:28;;;;;;;3.70;3.40;;;23.30;68.90;;;;;;5051938;28;20190;-78
2021/08/18 08:43:54;;;;;;;2.83;2.63;;;23.50;68.80;;;;;;5057539;28;20218;-76
2021/08/18 08:46:20;;;;;;;5.90;3.65;;;23.60;68.40;;;;;;5058041;28;20195;-77
2021/08/18 08:48:47;;;;;;;3.60;3.30;;;23.60;68.30;;;;;;5053358;28;20211;-78
2021/08/18 08:51:13;;;;;;;3.13;2.92;;;23.60;68.50;;;;;;5054043;28;20186;-79
2021/08/18 08:53:39;;;;;;;3.70;3.30;;;23.70;68.30;;;;;;5055226;28;20195;-79
2021/08/18 08:56:07;;;;;;;2.75;2.65;;;23.70;68.10;;;;;;5057714;28;20191;-78
2021/08/18 08:58:33;;;;;;;5.38;3.33;;;23.80;67.90;;;;;;5056242;28;20191;-77
2021/08/18 09:00:58;;;;;;;2.42;2.33;;;24.10;68.00;;;;;;5061632;28;20927;-79
2021/08/18 09:03:24;;;;;;;2.22;2.13;;;24.30;67.50;;;;;;5050121;28;20175;-79
2021/08/18 09:05:52;;;;;;;2.67;2.28;;;24.30;67.40;;;;;;5050658;28;20218;-79
2021/08/18 09:08:22;;;;;;;4.75;2.20;;;24.50;67.30;;;;;;5059857;28;20229;-80
2021/08/18 09:11:23;;;;;;;3.17;2.60;;;24.60;66.40;;;;;;5058747;28;20171;-78
2021/08/18 09:13:54;;;;;;;3.47;3.13;;;24.60;66.80;;;;;;5029733;28;20193;-77
2021/08/18 09:16:34;;;;;;;3.13;2.60;;;24.70;66.70;;;;;;5032314;28;20247;-77
2021/08/18 09:18:59;;;;;;;2.92;2.75;;;24.80;66.90;;;;;;5024305;28;22204;-77
2021/08/18 09:21:36;;;;;;;2.88;2.70;;;25.00;66.20;;;;;;5030496;28;20188;-77
2021/08/18 09:24:29;;;;;;;3.92;3.53;;;25.30;65.60;;;;;;5031853;28;20220;-78
2021/08/18 09:26:59;;;;;;;3.17;2.95;;;25.60;65.20;;;;;;5025218;28;20229;-77
2021/08/18 09:29:46;;;;;;;2.88;2.67;;;25.80;65.10;;;;;;5027517;28;20195;-77
2021/08/18 09:32:31;;;;;;;3.20;3.00;;;26.30;64.20;;;;;;5022689;28;20195;-78
2021/08/18 09:35:08;;;;;;;2.85;2.08;;;26.60;63.70;;;;;;5037250;28;20191;-78
2021/08/18 09:37:35;;;;;;;3.70;3.40;;;26.70;63.60;;;;;;5034075;28;20188;-77
2021/08/18 09:40:12;;;;;;;3.03;2.75;;;26.90;63.10;;;;;;5030320;28;20186;-78
2021/08/18 09:42:38;;;;;;;8.48;3.33;;;27.20;63.10;;;;;;5029432;28;21444;-77
2021/08/18 09:45:20;;;;;;;3.30;3.17;;;27.90;62.20;;;;;;5030117;28;20244;-78
2021/08/18 09:47:56;;;;;;;4.20;3.15;;;28.70;60.90;;;;;;5040496;28;20244;-77
2021/08/18 09:50:23;;;;;;;4.43;3.85;;;29.50;59.50;;;;;;5056611;28;20182;-78
2021/08/18 09:52:50;;;;;;;3.97;3.75;;;30.10;59.00;;;;;;5048598;28;20202;-77
2021/08/18 09:55:24;;;;;;;3.58;3.35;;;30.60;57.70;;;;;;5056141;28;20178;-78
2021/08/18 09:57:50;;;;;;;4.88;3.58;;;31.20;56.90;;;;;;5053163;28;20194;-78
2021/08/18 10:00:16;;;;;;;4.10;3.17;;;31.60;56.20;;;;;;5052667;28;20184;-78
2021/08/18 10:02:43;;;;;;;3.38;3.10;;;32.10;55.60;;;;;;5051366;28;20179;-78
2021/08/18 10:05:09;;;;;;;3.25;3.05;;;32.70;55.00;;;;;;5054379;28;20214;-78
2021/08/18 10:07:35;;;;;;;4.32;3.63;;;33.20;54.30;;;;;;5052207;28;20179;-78
2021/08/18 10:10:04;;;;;;;4.35;3.78;;;33.60;54.00;;;;;;5052717;28;20219;-77
2021/08/18 10:12:33;;;;;;;6.30;3.83;;;34.00;53.30;;;;;;5055468;28;20179;-76
2021/08/18 10:15:01;;;;;;;5.35;3.38;;;34.50;52.20;;;;;;5055245;28;20203;-76
2021/08/18 10:17:30;;;;;;;4.35;3.80;;;34.80;51.20;;;;;;5049642;28;20210;-76
2021/08/18 10:19:56;;;;;;;3.97;3.67;;;35.20;51.70;;;;;;5054563;28;20303;-76
2021/08/18 10:22:29;;;;;;;3.92;3.67;;;35.70;50.90;;;;;;5055584;28;20182;-76
2021/08/18 10:24:55;;;;;;;3.45;3.25;;;36.30;51.30;;;;;;5057152;28;20210;-75
2021/08/18 10:27:49;;;;;;;3.45;3.25;;;36.70;50.30;;;;;;5055133;28;20259;-76
2021/08/18 10:30:26;;;;;;;3.60;3.30;;;37.10;48.40;;;;;;5053975;28;20180;-76
2021/08/18 10:32:52;;;;;;;4.78;3.80;;;37.30;48.00;;;;;;5054818;28;20213;-77
2021/08/18 10:35:36;;;;;;;3.35;3.15;;;37.40;49.40;;;;;;5051546;28;20186;-76
2021/08/18 10:38:23;;;;;;;5.15;3.35;;;37.70;48.00;;;;;;5049634;28;20179;-76
2021/08/18 10:40:49;;;;;;;3.58;3.47;;;38.00;47.50;;;;;;5049020;28;20167;-76
2021/08/18 10:43:59;;;;;;;4.03;3.70;;;38.30;47.70;;;;;;5058892;28;20178;-77
2021/08/18 10:46:26;;;;;;;3.65;3.45;;;38.60;46.60;;;;;;5054088;28;20183;-76
2021/08/18 10:48:55;;;;;;;4.90;4.38;;;38.70;47.00;;;;;;5052562;28;20754;-76
2021/08/18 10:51:39;;;;;;;4.18;3.88;;;38.70;46.10;;;;;;5052528;28;20277;-77
2021/08/18 10:54:29;;;;;;;4.38;3.97;;;38.70;46.10;;;;;;5054753;28;20182;-77
2021/08/18 10:56:59;;;;;;;3.75;3.58;;;38.90;45.90;;;;;;5053810;28;20182;-77
2021/08/18 10:59:34;;;;;;;6.22;4.43;;;38.70;46.30;;;;;;5056064;28;20183;-77
2021/08/18 11:02:04;;;;;;;5.22;4.38;;;38.40;46.10;;;;;;5048746;28;20273;-76
2021/08/18 11:04:41;;;;;;;4.45;4.15;;;38.10;47.90;;;;;;5051395;28;20211;-76
2021/08/18 11:07:07;;;;;;;4.20;3.97;;;38.30;46.50;;;;;;5053412;28;20681;-77
2021/08/18 11:09:48;;;;;;;4.47;4.28;;;38.50;47.30;;;;;;5051476;28;20188;-77
2021/08/18 11:12:39;;;;;;;4.35;4.07;;;38.70;46.50;;;;;;5052477;28;20305;-77
2021/08/18 11:15:45;;;;;;;4.93;4.53;;;39.00;46.20;;;;;;5053593;28;20183;-77
2021/08/18 11:18:11;;;;;;;4.72;4.40;;;39.20;45.20;;;;;;4989397;28;20793;-76
2021/08/18 11:20:37;;;;;;;4.80;4.50;;;39.20;46.10;;;;;;4988984;28;20275;-76
2021/08/18 11:23:06;;;;;;;4.72;4.32;;;39.40;46.80;;;;;;4992287;28;20197;-75
2021/08/18 11:25:44;;;;;;;4.28;3.92;;;39.80;45.70;;;;;;4995648;28;20220;-75
2021/08/18 11:28:23;;;;;;;7.38;4.72;;;40.20;46.20;;;;;;4994761;28;20224;-75
2021/08/18 11:31:17;;;;;;;4.47;4.18;;;40.50;44.20;;;;;;4994890;28;20236;-75
2021/08/18 11:33:44;;;;;;;4.53;4.32;;;;;;;;;;4922690;29;20206;-75
2021/08/18 11:36:14;;;;;;;4.28;4.05;;;40.80;44.00;;;;;;4924781;29;20206;-75
2021/08/18 11:38:40;;;;;;;4.47;3.70;;;40.60;44.80;;;;;;4921819;29;20222;-75
2021/08/18 11:41:06;;;;;;;4.93;4.63;;;40.60;45.00;;;;;;4925060;29;20217;-75
2021/08/18 11:43:40;;;;;;;4.82;4.43;;;40.80;45.30;;;;;;4924510;29;20887;-75
2021/08/18 11:46:06;;;;;;;5.75;4.15;;;40.80;44.70;;;;;;4925399;29;20242;-75
2021/08/18 11:48:33;;;;;;;4.88;4.47;;;40.70;44.30;;;;;;4921790;29;20200;-75
2021/08/18 11:51:00;;;;;;;4.97;4.68;;;40.30;44.20;;;;;;4924039;29;20312;-75
2021/08/18 11:53:26;;;;;;;5.15;4.80;;;39.90;44.70;;;;;;4923308;29;20210;-75
2021/08/18 11:56:00;;;;;;;4.95;4.65;;;39.80;45.90;;;;;;4939913;28;20195;-75
2021/08/18 11:58:32;;;;;;;6.22;4.95;;;39.90;44.30;;;;;;4943724;28;20310;-75
2021/08/18 12:01:06;;;;;;;5.15;4.53;;;39.80;45.40;;;;;;4945472;28;20190;-75
2021/08/18 12:03:32;;;;;;;5.45;4.95;;;39.90;46.20;;;;;;4937857;28;20237;-76
2021/08/18 12:06:05;;;;;;;6.35;5.35;;;40.10;44.60;;;;;;4941201;29;20222;-76
2021/08/18 12:08:35;;;;;;;5.47;5.07;;;40.30;45.60;;;;;;4942778;29;20190;-75
2021/08/18 12:11:00;;;;;;;4.63;4.32;;;40.50;45.20;;;;;;5033624;28;20191;-75
2021/08/18 12:13:40;;;;;;;5.32;4.40;;;40.60;44.70;;;;;;5045750;28;20257;-76
2021/08/18 12:16:31;;;;;;;4.82;4.53;;;40.80;44.00;;;;;;5054597;28;20166;-76
2021/08/18 12:19:21;;;;;;;4.75;4.43;;;41.00;43.00;;;;;;5036628;28;20580;-76
2021/08/18 12:22:14;;;;;;;5.63;5.18;;;40.90;42.50;;;;;;5047256;28;21006;-75
2021/08/18 12:24:44;;;;;;;4.90;4.60;;;40.80;42.70;;;;;;5049829;28;20218;-75
2021/08/18 12:27:14;;;;;;;4.68;4.28;;;40.60;44.00;;;;;;5050291;28;20179;-75
2021/08/18 12:29:40;;;;;;;5.63;5.18;;;40.30;44.80;;;;;;5048844;28;20749;-75
2021/08/18 12:32:13;;;;;;;5.97;5.43;;;40.20;44.10;;;;;;5056777;28;20320;-75
2021/08/18 12:34:46;;;;;;;5.63;5.20;;;40.20;44.70;;;;;;5047098;28;20664;-75
2021/08/18 12:37:19;;;;;;;6.05;4.88;;;40.30;45.30;;;;;;5049234;28;20175;-75
2021/08/18 12:39:46;;;;;;;7.47;5.25;;;40.50;43.60;;;;;;5045753;28;20206;-75
2021/08/18 12:42:34;;;;;;;6.25;5.78;;;40.40;43.30;;;;;;5050984;28;20193;-75
2021/08/18 12:45:06;;;;;;;5.32;4.80;;;40.40;43.10;;;;;;5056649;28;20215;-75
2021/08/18 12:47:34;;;;;;;5.82;5.20;;;40.30;44.10;;;;;;5043561;28;20576;-75
2021/08/18 12:50:01;;;;;;;5.35;5.05;;;40.40;45.00;;;;;;5046859;28;20217;-75
2021/08/18 12:52:27;;;;;;;7.15;5.38;;;40.40;44.30;;;;;;5049987;28;20207;-75
2021/08/18 12:54:54;;;;;;;5.97;5.35;;;40.20;44.00;;;;;;5055948;28;20200;-75